createdAt,value
2018-09-20T00:01:26.056Z,17.17
2018-09-20T00:03:55.946Z,17.17
2018-09-20T00:06:25.957Z,17.20
2018-09-20T00:08:55.696Z,17.23
2018-09-20T00:11:25.372Z,17.18
2018-09-20T00:13:56.157Z,17.13
2018-09-20T00:16:27.229Z,17.13
2018-09-20T00:18:57.866Z,17.13
2018-09-20T00:21:27.856Z,17.13
2018-09-20T00:23:58.526Z,17.15
2018-09-20T00:26:28.840Z,17.18
2018-09-20T00:28:59.222Z,17.21
2018-09-20T00:31:29.509Z,17.23
2018-09-20T00:33:59.838Z,17.21
2018-09-20T00:36:31.248Z,17.22
2018-09-20T00:39:02.580Z,17.22
2018-09-20T00:41:33.777Z,17.14
2018-09-20T00:44:04.440Z,17.09
2018-09-20T00:46:35.513Z,17.11
2018-09-20T00:49:06.218Z,17.11
2018-09-20T00:51:37.171Z,17.13
2018-09-20T00:54:07.036Z,17.13
2018-09-20T00:56:37.678Z,17.11
2018-09-20T00:59:09.577Z,17.10
2018-09-20T01:01:40.747Z,17.08
2018-09-20T01:04:11.526Z,17.04
2018-09-20T01:06:42.412Z,17.03
2018-09-20T01:09:13.182Z,17.04
2018-09-20T01:11:43.922Z,17.01
2018-09-20T01:14:15.611Z,16.92
2018-09-20T01:16:46.644Z,16.88
2018-09-20T01:19:16.881Z,16.88
2018-09-20T01:21:47.374Z,16.88
2018-09-20T01:24:18.049Z,16.89
2018-09-20T01:26:48.597Z,16.90
2018-09-20T01:29:19.189Z,16.89
2018-09-20T01:31:49.773Z,16.90
2018-09-20T01:34:19.622Z,16.90
2018-09-20T01:36:50.272Z,16.91
2018-09-20T01:39:21.358Z,16.93
2018-09-20T01:41:51.432Z,16.91
2018-09-20T01:44:22.410Z,16.93
2018-09-20T01:46:52.233Z,16.95
2018-09-20T01:49:22.994Z,16.94
2018-09-20T01:51:53.957Z,16.94
2018-09-20T01:54:24.605Z,16.91
2018-09-20T01:56:54.303Z,16.90
2018-09-20T01:59:25.375Z,16.82
2018-09-20T02:01:56.100Z,16.78
2018-09-20T02:04:26.695Z,16.73
2018-09-20T02:06:57.904Z,16.61
2018-09-20T02:09:28.265Z,16.59
2018-09-20T02:11:58.538Z,16.57
2018-09-20T02:14:28.912Z,16.59
2018-09-20T02:17:00.451Z,16.60
2018-09-20T02:19:30.758Z,16.60
2018-09-20T02:22:00.454Z,16.60
2018-09-20T02:24:30.402Z,16.63
2018-09-20T02:27:00.785Z,16.63
2018-09-20T02:29:30.487Z,16.64
2018-09-20T02:32:01.530Z,16.63
2018-09-20T02:34:32.498Z,16.59
2018-09-20T02:37:02.222Z,16.56
2018-09-20T02:39:32.769Z,16.57
2018-09-20T02:42:03.164Z,16.56
2018-09-20T02:44:35.019Z,16.60
2018-09-20T02:47:05.642Z,16.62
2018-09-20T02:49:35.811Z,16.67
2018-09-20T02:52:06.570Z,16.66
2018-09-20T02:54:37.370Z,16.60
2018-09-20T02:57:08.021Z,16.55
2018-09-20T02:59:38.495Z,16.44
2018-09-20T03:02:09.178Z,16.37
2018-09-20T03:04:39.952Z,16.34
2018-09-20T03:07:11.819Z,16.36
2018-09-20T03:09:42.817Z,16.37
2018-09-20T03:12:12.589Z,16.37
2018-09-20T03:14:43.453Z,16.33
2018-09-20T03:17:14.310Z,16.34
2018-09-20T03:19:43.960Z,16.35
2018-09-20T03:22:14.275Z,16.36
2018-09-20T03:24:44.890Z,16.38
2018-09-20T03:27:14.914Z,16.40
2018-09-20T03:29:45.890Z,16.40
2018-09-20T03:32:16.584Z,16.34
2018-09-20T03:34:47.059Z,16.25
2018-09-20T03:37:18.454Z,16.27
2018-09-20T03:39:48.082Z,16.26
2018-09-20T03:42:17.985Z,16.24
2018-09-20T03:44:48.836Z,16.25
2018-09-20T03:47:18.650Z,16.27
2018-09-20T03:49:48.888Z,16.25
2018-09-20T03:52:20.174Z,16.23
2018-09-20T03:54:50.878Z,16.22
2018-09-20T03:57:21.154Z,16.21
2018-09-20T03:59:51.044Z,16.21
2018-09-20T04:02:22.439Z,16.22
2018-09-20T04:04:52.470Z,16.21
2018-09-20T04:07:23.368Z,16.20
2018-09-20T04:09:54.098Z,16.21
2018-09-20T04:12:25.358Z,16.22
2018-09-20T04:14:55.776Z,16.21
2018-09-20T04:17:27.500Z,16.21
2018-09-20T04:19:59.026Z,16.22
2018-09-20T04:22:30.258Z,16.22
2018-09-20T04:25:01.298Z,16.22
2018-09-20T04:27:31.766Z,16.20
2018-09-20T04:30:01.834Z,16.19
2018-09-20T04:32:33.475Z,16.18
2018-09-20T04:35:04.363Z,16.17
2018-09-20T04:37:36.359Z,16.12
2018-09-20T04:40:07.232Z,16.13
2018-09-20T04:42:37.944Z,16.13
2018-09-20T04:45:08.027Z,16.10
2018-09-20T04:47:37.729Z,16.11
2018-09-20T04:50:08.421Z,16.12
2018-09-20T04:52:39.138Z,16.13
2018-09-20T04:55:10.142Z,16.16
2018-09-20T04:57:40.195Z,16.21
2018-09-20T05:00:09.910Z,16.19
2018-09-20T05:02:41.037Z,16.24
2018-09-20T05:05:10.844Z,16.27
2018-09-20T05:07:40.777Z,16.27
2018-09-20T05:10:10.563Z,16.28
2018-09-20T05:12:41.397Z,16.32
2018-09-20T05:15:12.367Z,16.38
2018-09-20T05:17:42.727Z,16.44
2018-09-20T05:20:13.719Z,16.51
2018-09-20T05:22:44.159Z,15.72
2018-09-20T05:25:16.023Z,16.63
2018-09-20T05:27:45.791Z,16.70
2018-09-20T05:30:17.669Z,16.84
2018-09-20T05:32:49.266Z,17.01
2018-09-20T05:35:26.194Z,17.17
2018-09-20T05:37:55.878Z,17.28
2018-09-20T05:40:28.190Z,17.30
2018-09-20T05:42:58.930Z,17.37
2018-09-20T05:45:28.698Z,17.47
2018-09-20T05:47:58.829Z,17.62
2018-09-20T05:50:29.838Z,17.74
2018-09-20T05:52:59.895Z,17.85
2018-09-20T05:55:29.650Z,17.92
2018-09-20T05:57:59.657Z,18.01
2018-09-20T06:00:29.770Z,18.10
2018-09-20T06:02:59.464Z,18.20
2018-09-20T06:05:29.975Z,18.28
2018-09-20T06:08:00.151Z,18.44
2018-09-20T06:10:29.947Z,18.53
2018-09-20T06:13:00.046Z,18.64
2018-09-20T06:15:30.332Z,18.77
2018-09-20T06:18:00.715Z,18.80
2018-09-20T06:20:33.479Z,18.92
2018-09-20T06:23:03.513Z,19.06
2018-09-20T06:25:33.717Z,19.20
2018-09-20T06:28:03.548Z,19.05
2018-09-20T06:30:33.378Z,19.33
2018-09-20T06:33:03.090Z,19.41
2018-09-20T06:35:33.911Z,19.47
2018-09-20T06:38:03.723Z,19.52
2018-09-20T06:40:33.534Z,19.55
2018-09-20T06:43:04.157Z,19.60
2018-09-20T06:45:33.999Z,19.70
2018-09-20T06:48:04.143Z,19.72
2018-09-20T06:50:34.099Z,19.75
2018-09-20T06:53:04.127Z,19.79
2018-09-20T06:55:34.610Z,19.87
2018-09-20T06:58:05.344Z,19.94
2018-09-20T07:00:35.204Z,20.00
2018-09-20T07:03:05.420Z,19.99
2018-09-20T07:05:36.938Z,20.18
2018-09-20T07:08:06.704Z,20.21
2018-09-20T07:10:36.505Z,20.37
2018-09-20T07:13:06.639Z,20.44
2018-09-20T07:15:36.517Z,20.48
2018-09-20T07:18:06.348Z,20.53
2018-09-20T07:20:36.572Z,20.53
2018-09-20T07:23:06.618Z,20.66
2018-09-20T07:25:36.505Z,20.78
2018-09-20T07:28:07.334Z,20.82
2018-09-20T07:30:37.720Z,20.80
2018-09-20T07:33:07.770Z,20.92
2018-09-20T07:35:38.945Z,21.06
2018-09-20T07:38:08.930Z,21.23
2018-09-20T07:40:39.774Z,21.17
2018-09-20T07:43:10.507Z,21.28
2018-09-20T07:45:40.410Z,21.39
2018-09-20T07:48:10.146Z,21.31
2018-09-20T07:50:40.329Z,21.26
2018-09-20T07:53:10.178Z,21.32
2018-09-20T07:55:40.831Z,21.36
2018-09-20T07:58:10.918Z,21.42
2018-09-20T08:00:41.420Z,21.45
2018-09-20T08:03:11.170Z,21.65
2018-09-20T08:05:40.972Z,21.86
2018-09-20T08:08:10.868Z,21.90
2018-09-20T08:10:40.751Z,22.21
2018-09-20T08:13:10.583Z,22.56
2018-09-20T08:15:40.413Z,22.60
2018-09-20T08:18:10.230Z,22.81
2018-09-20T08:20:40.075Z,22.86
2018-09-20T08:23:10.171Z,23.15
2018-09-20T08:25:40.313Z,23.24
2018-09-20T08:28:10.754Z,23.20
2018-09-20T08:30:41.258Z,23.53
2018-09-20T08:33:11.124Z,23.84
2018-09-20T08:35:40.988Z,24.21
2018-09-20T08:38:10.782Z,24.61
2018-09-20T08:40:41.162Z,24.95
2018-09-20T08:43:11.063Z,25.25
2018-09-20T08:45:40.887Z,25.41
2018-09-20T08:48:10.662Z,25.66
2018-09-20T08:50:40.974Z,25.87
2018-09-20T08:53:11.976Z,26.05
2018-09-20T08:55:42.388Z,26.10
2018-09-20T08:58:12.802Z,26.11
2018-09-20T09:00:42.566Z,26.23
2018-09-20T09:03:12.403Z,26.34
2018-09-20T09:05:42.515Z,26.40
2018-09-20T09:08:12.826Z,26.39
2018-09-20T09:10:42.642Z,26.43
2018-09-20T09:13:13.036Z,26.55
2018-09-20T09:15:42.882Z,26.60
2018-09-20T09:18:12.623Z,26.69
2018-09-20T09:20:43.333Z,26.73
2018-09-20T09:23:13.152Z,26.74
2018-09-20T09:25:42.985Z,26.76
2018-09-20T09:28:12.826Z,26.44
2018-09-20T09:30:43.563Z,26.36
2018-09-20T09:33:14.315Z,26.39
2018-09-20T09:35:44.090Z,26.48
2018-09-20T09:38:14.894Z,26.57
2018-09-20T09:40:45.136Z,26.46
2018-09-20T09:43:14.934Z,26.40
2018-09-20T09:45:45.126Z,26.54
2018-09-20T09:48:14.983Z,26.49
2018-09-20T09:50:44.795Z,26.60
2018-09-20T09:53:15.056Z,26.67
2018-09-20T09:55:45.835Z,26.75
2018-09-20T09:58:15.683Z,26.82
2018-09-20T10:00:45.470Z,26.81
2018-09-20T10:03:15.262Z,26.88
2018-09-20T10:05:44.950Z,26.89
2018-09-20T10:08:14.636Z,26.95
2018-09-20T10:10:44.986Z,26.92
2018-09-20T10:13:14.763Z,26.96
2018-09-20T10:15:44.504Z,26.87
2018-09-20T10:18:14.240Z,26.72
2018-09-20T10:20:44.591Z,26.80
2018-09-20T10:23:14.312Z,26.77
2018-09-20T10:25:44.062Z,26.77
2018-09-20T10:28:13.774Z,26.70
2018-09-20T10:30:43.563Z,26.60
2018-09-20T10:33:13.246Z,26.53
2018-09-20T10:35:42.961Z,26.44
2018-09-20T10:38:13.905Z,26.36
2018-09-20T10:40:43.695Z,26.26
2018-09-20T10:43:13.429Z,26.12
2018-09-20T10:45:43.247Z,26.00
2018-09-20T10:48:13.211Z,26.02
2018-09-20T10:50:43.270Z,26.08
2018-09-20T10:53:13.313Z,26.11
2018-09-20T10:55:43.110Z,26.02
2018-09-20T10:58:12.765Z,26.04
2018-09-20T11:00:46.642Z,26.02
2018-09-20T11:03:16.863Z,26.11
2018-09-20T11:05:46.782Z,26.04
2018-09-20T11:08:18.839Z,25.98
2018-09-20T11:10:48.695Z,26.02
2018-09-20T11:13:18.374Z,25.92
2018-09-20T11:15:48.178Z,25.91
2018-09-20T11:18:19.718Z,25.95
2018-09-20T11:20:49.978Z,25.95
2018-09-20T11:23:20.790Z,26.05
2018-09-20T11:25:51.727Z,26.08
2018-09-20T11:28:22.160Z,26.02
2018-09-20T11:30:51.930Z,25.94
2018-09-20T11:33:22.112Z,26.04
2018-09-20T11:35:51.838Z,26.05
2018-09-20T11:38:22.019Z,26.04
2018-09-20T11:40:51.862Z,26.00
2018-09-20T11:43:21.589Z,25.95
2018-09-20T11:45:51.374Z,25.90
2018-09-20T11:48:21.070Z,25.87
2018-09-20T11:50:50.794Z,25.88
2018-09-20T11:53:21.372Z,25.94
2018-09-20T11:55:51.182Z,26.01
2018-09-20T11:58:21.429Z,25.94
2018-09-20T12:00:51.222Z,25.96
2018-09-20T12:03:21.154Z,25.98
2018-09-20T12:05:50.881Z,25.92
2018-09-20T12:08:20.925Z,25.87
2018-09-20T12:10:51.398Z,25.71
2018-09-20T12:13:21.137Z,25.66
2018-09-20T12:15:50.930Z,25.77
2018-09-20T12:18:20.729Z,25.78
2018-09-20T12:20:50.826Z,25.75
2018-09-20T12:23:20.490Z,25.79
2018-09-20T12:25:50.358Z,25.93
2018-09-20T12:28:20.944Z,25.85
2018-09-20T12:30:50.790Z,25.82
2018-09-20T12:33:20.582Z,25.80
2018-09-20T12:35:50.669Z,25.53
2018-09-20T12:38:20.329Z,25.44
2018-09-20T12:40:50.120Z,25.47
2018-09-20T12:43:20.125Z,25.60
2018-09-20T12:45:50.280Z,25.62
2018-09-20T12:48:20.203Z,25.65
2018-09-20T12:50:50.163Z,25.64
2018-09-20T12:53:19.874Z,25.61
2018-09-20T12:55:50.083Z,25.60
2018-09-20T12:58:24.655Z,25.67
2018-09-20T13:00:54.378Z,25.75
2018-09-20T13:03:24.156Z,25.69
2018-09-20T13:05:55.403Z,25.55
2018-09-20T13:08:25.362Z,25.53
2018-09-20T13:10:55.936Z,25.58
2018-09-20T13:13:25.634Z,25.55
2018-09-20T13:15:55.665Z,25.45
2018-09-20T13:18:25.809Z,25.41
2018-09-20T13:20:56.666Z,25.37
2018-09-20T13:23:26.454Z,25.26
2018-09-20T13:25:56.242Z,25.23
2018-09-20T13:28:26.062Z,25.19
2018-09-20T13:30:56.446Z,25.16
2018-09-20T13:33:26.306Z,25.17
2018-09-20T13:35:56.130Z,25.19
2018-09-20T13:38:25.826Z,25.33
2018-09-20T13:40:55.962Z,25.28
2018-09-20T13:43:26.906Z,25.20
2018-09-20T13:45:56.681Z,25.13
2018-09-20T13:48:26.514Z,25.12
2018-09-20T13:50:57.279Z,25.17
2018-09-20T13:53:29.127Z,25.08
2018-09-20T13:55:58.882Z,25.02
2018-09-20T13:58:28.871Z,25.02
2018-09-20T14:00:59.794Z,25.04
2018-09-20T14:03:30.457Z,25.06
2018-09-20T14:06:01.236Z,25.04
2018-09-20T14:08:31.478Z,25.07
2018-09-20T14:11:01.969Z,25.07
2018-09-20T14:13:31.750Z,25.05
2018-09-20T14:16:02.940Z,25.05
2018-09-20T14:18:32.789Z,25.07
2018-09-20T14:21:02.876Z,25.12
2018-09-20T14:23:32.688Z,25.11
2018-09-20T14:26:03.133Z,25.16
2018-09-20T14:28:32.989Z,25.14
2018-09-20T14:31:03.150Z,25.12
2018-09-20T14:33:33.824Z,25.07
2018-09-20T14:36:04.642Z,25.09
2018-09-20T14:38:34.484Z,25.01
2018-09-20T14:41:04.299Z,24.96
2018-09-20T14:43:34.061Z,24.93
2018-09-20T14:46:04.162Z,24.88
2018-09-20T14:48:33.954Z,24.80
2018-09-20T14:51:03.742Z,24.80
2018-09-20T14:53:34.080Z,24.79
2018-09-20T14:56:05.726Z,24.81
2018-09-20T14:58:36.402Z,24.72
2018-09-20T15:01:07.461Z,24.68
2018-09-20T15:03:37.641Z,24.69
2018-09-20T15:06:08.956Z,24.71
2018-09-20T15:08:39.239Z,24.65
2018-09-20T15:11:09.034Z,24.60
2018-09-20T15:13:38.810Z,24.66
2018-09-20T15:16:08.610Z,24.72
2018-09-20T15:18:38.431Z,24.66
2018-09-20T15:21:09.072Z,24.58
2018-09-20T15:23:38.795Z,24.53
2018-09-20T15:26:08.702Z,24.52
2018-09-20T15:28:38.452Z,24.46
2018-09-20T15:31:08.456Z,24.39
2018-09-20T15:33:38.258Z,24.31
2018-09-20T15:36:08.137Z,24.30
2018-09-20T15:38:38.094Z,24.36
2018-09-20T15:41:07.838Z,24.33
2018-09-20T15:43:38.126Z,24.28
2018-09-20T15:46:08.605Z,24.37
2018-09-20T15:48:38.362Z,24.35
2018-09-20T15:51:08.059Z,24.32
2018-09-20T15:53:42.507Z,24.25
2018-09-20T15:56:13.609Z,24.20
2018-09-20T15:58:44.490Z,24.15
2018-09-20T16:01:14.290Z,24.10
2018-09-20T16:03:44.118Z,24.04
2018-09-20T16:06:13.815Z,23.97
2018-09-20T16:08:43.549Z,23.89
2018-09-20T16:11:13.422Z,23.83
2018-09-20T16:13:43.169Z,23.77
2018-09-20T16:16:13.499Z,23.69
2018-09-20T16:18:44.224Z,23.60
2018-09-20T16:21:14.071Z,23.54
2018-09-20T16:23:44.563Z,23.45
2018-09-20T16:26:15.322Z,23.36
2018-09-20T16:29:00.576Z,23.29
2018-09-20T16:31:47.337Z,23.22
2018-09-20T16:34:36.797Z,23.13
2018-09-20T16:38:15.861Z,23.08
2018-09-20T16:40:48.234Z,22.96
2018-09-20T16:43:18.509Z,22.88
2018-09-20T16:45:49.916Z,22.81
2018-09-20T16:48:19.853Z,22.75
2018-09-20T16:50:49.641Z,22.69
2018-09-20T16:53:19.662Z,22.62
2018-09-20T16:55:49.447Z,22.56
2018-09-20T16:58:19.237Z,22.50
2018-09-20T17:00:50.464Z,22.45
2018-09-20T17:03:20.399Z,22.39
2018-09-20T17:05:50.470Z,22.32
2018-09-20T17:08:21.965Z,22.24
2018-09-20T17:10:51.854Z,22.19
2018-09-20T17:13:22.371Z,22.12
2018-09-20T17:15:52.736Z,22.05
2018-09-20T17:18:22.632Z,22.00
2018-09-20T17:20:52.443Z,21.96
2018-09-20T17:23:22.201Z,21.90
2018-09-20T17:25:52.512Z,21.84
2018-09-20T17:28:22.839Z,21.75
2018-09-20T17:30:53.706Z,21.69
2018-09-20T17:33:23.911Z,21.62
2018-09-20T17:35:54.699Z,21.56
2018-09-20T17:38:25.114Z,21.51
2018-09-20T17:40:59.979Z,21.53
2018-09-20T17:43:36.009Z,21.57
2018-09-20T17:46:05.919Z,21.55
2018-09-20T17:48:36.748Z,21.53
2018-09-20T17:51:07.779Z,21.49
2018-09-20T17:53:38.307Z,21.45
2018-09-20T17:56:08.939Z,21.41
2018-09-20T17:58:39.190Z,21.33
2018-09-20T18:01:10.077Z,21.25
2018-09-20T18:03:40.340Z,21.21
2018-09-20T18:06:10.850Z,21.15
2018-09-20T18:08:41.122Z,21.10
2018-09-20T18:11:11.537Z,21.06
2018-09-20T18:13:42.482Z,21.03
2018-09-20T18:16:15.120Z,20.97
2018-09-20T18:18:44.969Z,20.92
2018-09-20T18:21:16.621Z,20.89
2018-09-20T18:23:46.402Z,20.84
2018-09-20T18:26:18.230Z,20.80
2018-09-20T18:28:49.373Z,20.75
2018-09-20T18:31:19.816Z,20.71
2018-09-20T18:33:50.930Z,20.65
2018-09-20T18:36:20.874Z,20.64
2018-09-20T18:38:50.853Z,20.59
2018-09-20T18:41:22.011Z,20.54
2018-09-20T18:43:51.701Z,20.51
2018-09-20T18:46:23.239Z,20.50
2018-09-20T18:48:54.029Z,20.47
2018-09-20T18:51:23.948Z,20.41
2018-09-20T18:53:54.243Z,20.35
2018-09-20T18:56:24.895Z,20.31
2018-09-20T18:58:56.462Z,20.25
2018-09-20T19:01:26.908Z,20.26
2018-09-20T19:03:57.530Z,20.21
2018-09-20T19:06:28.228Z,20.19
2018-09-20T19:08:58.558Z,20.13
2018-09-20T19:11:28.988Z,20.05
2018-09-20T19:13:59.805Z,19.99
2018-09-20T19:16:29.698Z,19.97
2018-09-20T19:19:02.356Z,19.97
2018-09-20T19:21:32.189Z,19.91
2018-09-20T19:24:02.415Z,19.87
2018-09-20T19:26:33.822Z,19.87
2018-09-20T19:29:04.639Z,19.84
2018-09-20T19:31:34.989Z,19.80
2018-09-20T19:34:04.784Z,19.78
2018-09-20T19:36:36.047Z,19.77
2018-09-20T19:39:08.530Z,19.73
2018-09-20T19:41:39.706Z,19.66
2018-09-20T19:44:10.369Z,19.62
2018-09-20T19:46:41.114Z,19.61
2018-09-20T19:49:13.144Z,19.62
2018-09-20T19:51:43.247Z,19.62
2018-09-20T19:54:13.403Z,19.59
2018-09-20T19:56:43.720Z,19.57
2018-09-20T19:59:13.926Z,19.55
2018-09-20T20:01:43.668Z,19.52
2018-09-20T20:04:13.502Z,19.47
2018-09-20T20:06:43.845Z,19.37
2018-09-20T20:09:15.001Z,19.32
2018-09-20T20:11:45.107Z,19.30
2018-09-20T20:14:15.424Z,19.26
2018-09-20T20:16:45.252Z,19.21
2018-09-20T20:19:15.098Z,19.17
2018-09-20T20:21:44.938Z,19.17
2018-09-20T20:24:14.859Z,19.14
2018-09-20T20:26:44.666Z,19.08
2018-09-20T20:29:14.526Z,19.08
2018-09-20T20:31:46.470Z,19.01
2018-09-20T20:34:16.726Z,18.96
2018-09-20T20:36:46.590Z,18.94
2018-09-20T20:39:16.454Z,18.92
2018-09-20T20:41:46.594Z,18.85
2018-09-20T20:44:16.482Z,18.84
2018-09-20T20:46:46.422Z,18.84
2018-09-20T20:49:16.196Z,18.81
2018-09-20T20:51:45.930Z,18.83
2018-09-20T20:54:15.741Z,18.79
2018-09-20T20:56:45.622Z,18.77
2018-09-20T20:59:15.429Z,18.77
2018-09-20T21:01:45.203Z,18.73
2018-09-20T21:04:15.040Z,18.73
2018-09-20T21:07:14.904Z,18.73
2018-09-20T21:09:45.303Z,18.67
2018-09-20T21:12:15.810Z,18.63
2018-09-20T21:14:45.823Z,18.61
2018-09-20T21:17:15.713Z,18.63
2018-09-20T21:19:45.954Z,18.61
2018-09-20T21:22:16.732Z,18.61
2018-09-20T21:24:46.957Z,18.58
2018-09-20T21:27:18.927Z,18.59
2018-09-20T21:29:49.029Z,18.60
2018-09-20T21:32:19.266Z,18.56
2018-09-20T21:34:49.479Z,18.55
2018-09-20T21:37:21.334Z,18.51
2018-09-20T21:39:52.172Z,18.47
2018-09-20T21:42:24.075Z,18.44
2018-09-20T21:44:54.256Z,18.39
2018-09-20T21:47:24.535Z,18.34
2018-09-20T21:49:55.025Z,18.24
2018-09-20T21:52:25.665Z,18.19
2018-09-20T21:54:56.561Z,18.19
2018-09-20T21:57:28.339Z,18.22
2018-09-20T21:59:58.801Z,18.18
2018-09-20T22:02:34.327Z,18.16
2018-09-20T22:05:05.269Z,18.11
2018-09-20T22:07:35.130Z,18.09
2018-09-20T22:10:05.203Z,18.07
2018-09-20T22:12:36.444Z,18.08
2018-09-20T22:15:10.627Z,18.09
2018-09-20T22:17:41.999Z,18.10
2018-09-20T22:20:12.330Z,18.08
2018-09-20T22:22:42.499Z,18.12
2018-09-20T22:25:12.848Z,18.08
2018-09-20T22:27:44.358Z,18.03
2018-09-20T22:30:14.571Z,18.03
2018-09-20T22:32:45.485Z,18.01
2018-09-20T22:35:15.717Z,17.97
2018-09-20T22:37:46.316Z,17.95
2018-09-20T22:40:17.427Z,17.93
2018-09-20T22:42:48.355Z,17.93
2018-09-20T22:45:18.758Z,17.93
2018-09-20T22:47:49.189Z,17.92
2018-09-20T22:50:19.960Z,17.88
2018-09-20T22:52:50.221Z,17.87
2018-09-20T22:55:20.416Z,17.85
2018-09-20T22:57:50.550Z,17.85
2018-09-20T23:00:23.973Z,17.86
2018-09-20T23:02:55.511Z,17.81
2018-09-20T23:05:25.571Z,17.76
2018-09-20T23:07:55.394Z,17.71
2018-09-20T23:10:25.259Z,17.66
2018-09-20T23:12:56.204Z,17.66
2018-09-20T23:15:26.075Z,17.64
2018-09-20T23:17:56.432Z,17.63
2018-09-20T23:20:27.418Z,17.60
2018-09-20T23:22:59.402Z,17.58
2018-09-20T23:25:29.326Z,17.53
2018-09-20T23:27:59.892Z,17.50
2018-09-20T23:30:38.705Z,17.41
2018-09-20T23:33:08.731Z,17.39
2018-09-20T23:35:38.637Z,17.37
2018-09-20T23:38:08.808Z,17.37
2018-09-20T23:40:38.690Z,17.36
2018-09-20T23:43:08.598Z,17.39
2018-09-20T23:45:38.521Z,17.36
2018-09-20T23:48:08.495Z,17.36
2018-09-20T23:50:38.359Z,17.34
2018-09-20T23:53:08.401Z,17.29
2018-09-20T23:55:38.313Z,17.29
2018-09-20T23:58:08.247Z,17.30
